createdAt,value
2023-04-14T00:00:50.075Z,15.40
2023-04-14T00:01:50.115Z,13.50
2023-04-14T00:02:50.201Z,15.00
2023-04-14T00:03:50.200Z,12.10
2023-04-14T00:04:50.123Z,15.30
2023-04-14T00:05:50.023Z,12.90
2023-04-14T00:06:50.003Z,17.00
2023-04-14T00:07:50.012Z,15.60
2023-04-14T00:08:49.985Z,14.50
2023-04-14T00:09:49.972Z,17.10
2023-04-14T00:10:49.958Z,14.00
2023-04-14T00:11:49.955Z,17.40
2023-04-14T00:12:49.966Z,15.30
2023-04-14T00:13:49.926Z,16.10
2023-04-14T00:14:49.912Z,13.10
2023-04-14T00:15:49.905Z,14.50
2023-04-14T00:16:49.926Z,10.40
2023-04-14T00:17:49.936Z,12.50
2023-04-14T00:18:50.403Z,16.20
2023-04-14T00:19:49.863Z,13.00
2023-04-14T00:20:49.859Z,12.20
2023-04-14T00:21:49.837Z,13.80
2023-04-14T00:22:49.843Z,13.40
2023-04-14T00:23:49.816Z,15.30
2023-04-14T00:24:49.796Z,13.00
2023-04-14T00:25:49.803Z,13.10
2023-04-14T00:26:49.777Z,14.80
2023-04-14T00:27:49.815Z,12.40
2023-04-14T00:28:49.768Z,14.50
2023-04-14T00:29:49.751Z,12.20
2023-04-14T00:30:49.774Z,14.80
2023-04-14T00:31:49.728Z,13.70
2023-04-14T00:32:49.813Z,18.70
2023-04-14T00:33:49.713Z,13.60
2023-04-14T00:34:49.694Z,11.50
2023-04-14T00:35:49.677Z,18.00
2023-04-14T00:36:49.666Z,13.70
2023-04-14T00:37:49.687Z,14.40
2023-04-14T00:38:49.662Z,18.70
2023-04-14T00:39:49.632Z,13.30
2023-04-14T00:40:49.627Z,12.70
2023-04-14T00:41:49.620Z,12.30
2023-04-14T00:42:49.632Z,14.80
2023-04-14T00:43:49.596Z,18.80
2023-04-14T00:44:49.603Z,16.50
2023-04-14T00:45:49.571Z,15.70
2023-04-14T00:46:49.594Z,17.80
2023-04-14T00:47:49.587Z,16.00
2023-04-14T00:48:49.549Z,13.80
2023-04-14T00:49:49.527Z,16.80
2023-04-14T00:50:49.510Z,20.40
2023-04-14T00:51:49.505Z,16.90
2023-04-14T00:52:49.507Z,19.60
2023-04-14T00:53:49.481Z,21.10
2023-04-14T00:54:49.471Z,28.80
2023-04-14T00:55:49.465Z,19.50
2023-04-14T00:56:49.450Z,16.00
2023-04-14T00:57:49.468Z,16.70
2023-04-14T00:58:49.442Z,18.40
2023-04-14T00:59:49.438Z,18.40
2023-04-14T01:00:49.404Z,16.20
2023-04-14T01:01:49.446Z,14.20
2023-04-14T01:02:49.547Z,13.60
2023-04-14T01:03:49.575Z,17.10
2023-04-14T01:04:54.313Z,15.60
2023-04-14T01:05:49.357Z,16.50
2023-04-14T01:06:49.341Z,15.70
2023-04-14T01:07:49.338Z,16.70
2023-04-14T01:08:49.319Z,11.60
2023-04-14T01:09:49.314Z,16.10
2023-04-14T01:10:49.298Z,14.30
2023-04-14T01:11:49.273Z,14.50
2023-04-14T01:12:49.290Z,14.90
2023-04-14T01:13:49.277Z,15.50
2023-04-14T01:14:49.256Z,13.40
2023-04-14T01:15:49.305Z,12.10
2023-04-14T01:16:49.229Z,12.50
2023-04-14T01:17:49.314Z,15.80
2023-04-14T01:18:49.205Z,17.70
2023-04-14T01:19:49.193Z,15.40
2023-04-14T01:20:49.184Z,13.90
2023-04-14T01:21:49.175Z,17.50
2023-04-14T01:22:49.192Z,17.00
2023-04-14T01:23:49.150Z,15.30
2023-04-14T01:24:49.147Z,13.80
2023-04-14T01:25:49.130Z,16.60
2023-04-14T01:26:49.117Z,15.00
2023-04-14T01:27:49.131Z,13.10
2023-04-14T01:28:49.097Z,16.00
2023-04-14T01:29:49.090Z,15.70
2023-04-14T01:30:49.077Z,15.90
2023-04-14T01:31:49.125Z,14.70
2023-04-14T01:32:49.103Z,16.60
2023-04-14T01:33:49.061Z,15.60
2023-04-14T01:34:49.041Z,16.20
2023-04-14T01:35:49.022Z,14.50
2023-04-14T01:36:49.009Z,18.60
2023-04-14T01:37:49.025Z,15.40
2023-04-14T01:38:48.994Z,17.20
2023-04-14T01:39:48.979Z,14.20
2023-04-14T01:40:48.979Z,13.80
2023-04-14T01:41:48.953Z,17.80
2023-04-14T01:42:48.975Z,17.50
2023-04-14T01:43:48.941Z,18.10
2023-04-14T01:44:48.929Z,19.10
2023-04-14T01:45:49.026Z,15.40
2023-04-14T01:46:48.894Z,15.70
2023-04-14T01:47:48.981Z,13.90
2023-04-14T01:48:48.880Z,13.90
2023-04-14T01:49:48.960Z,15.60
2023-04-14T01:50:48.855Z,16.30
2023-04-14T01:51:48.844Z,15.00
2023-04-14T01:52:48.862Z,18.40
2023-04-14T01:53:48.826Z,16.40
2023-04-14T01:54:48.827Z,16.60
2023-04-14T01:55:48.816Z,15.70
2023-04-14T01:56:48.813Z,16.40
2023-04-14T01:57:48.812Z,14.80
2023-04-14T01:58:48.764Z,13.70
2023-04-14T01:59:48.767Z,12.60
2023-04-14T02:00:48.756Z,14.50
2023-04-14T02:01:48.785Z,14.40
2023-04-14T02:02:48.878Z,18.00
2023-04-14T02:03:48.798Z,15.50
2023-04-14T02:04:48.705Z,14.90
2023-04-14T02:05:48.688Z,14.80
2023-04-14T02:06:48.671Z,14.20
2023-04-14T02:07:48.687Z,14.20
2023-04-14T02:08:48.670Z,15.60
2023-04-14T02:09:48.665Z,15.10
2023-04-14T02:10:48.636Z,15.10
2023-04-14T02:11:48.629Z,16.20
2023-04-14T02:12:48.638Z,16.60
2023-04-14T02:13:48.608Z,18.40
2023-04-14T02:14:48.595Z,18.10
2023-04-14T02:15:48.620Z,13.30
2023-04-14T02:16:48.582Z,17.10
2023-04-14T02:17:48.605Z,16.70
2023-04-14T02:18:48.543Z,19.30
2023-04-14T02:19:48.532Z,19.40
2023-04-14T02:20:48.512Z,17.60
2023-04-14T02:21:48.518Z,16.70
2023-04-14T02:22:48.517Z,19.30
2023-04-14T02:23:48.493Z,18.10
2023-04-14T02:24:48.474Z,17.00
2023-04-14T02:25:48.472Z,16.40
2023-04-14T02:26:48.451Z,18.00
2023-04-14T02:27:48.494Z,17.90
2023-04-14T02:28:48.432Z,18.80
2023-04-14T02:29:48.426Z,15.30
2023-04-14T02:30:48.489Z,14.40
2023-04-14T02:31:48.392Z,14.10
2023-04-14T02:32:48.456Z,13.80
2023-04-14T02:33:48.380Z,17.30
2023-04-14T02:34:48.397Z,16.20
2023-04-14T02:35:48.377Z,19.20
2023-04-14T02:36:48.347Z,17.50
2023-04-14T02:37:48.348Z,17.00
2023-04-14T02:38:48.338Z,18.00
2023-04-14T02:39:48.306Z,17.60
2023-04-14T02:40:48.297Z,15.00
2023-04-14T02:41:48.300Z,14.20
2023-04-14T02:42:48.293Z,16.20
2023-04-14T02:43:48.265Z,13.60
2023-04-14T02:44:48.247Z,15.50
2023-04-14T02:45:48.266Z,16.00
2023-04-14T02:46:48.227Z,14.60
2023-04-14T02:47:48.261Z,15.80
2023-04-14T02:48:48.208Z,18.40
2023-04-14T02:49:48.195Z,13.90
2023-04-14T02:50:48.183Z,19.20
2023-04-14T02:51:48.174Z,17.30
2023-04-14T02:52:48.197Z,17.00
2023-04-14T02:53:48.161Z,17.20
2023-04-14T02:54:48.140Z,19.40
2023-04-14T02:55:48.136Z,16.80
2023-04-14T02:56:48.115Z,13.60
2023-04-14T02:57:48.129Z,15.20
2023-04-14T02:58:48.101Z,16.90
2023-04-14T02:59:48.109Z,18.20
2023-04-14T03:00:48.087Z,15.00
2023-04-14T03:01:48.146Z,17.40
2023-04-14T03:02:48.163Z,16.20
2023-04-14T03:03:48.094Z,17.20
2023-04-14T03:04:48.036Z,15.00
2023-04-14T03:05:48.020Z,14.40
2023-04-14T03:06:48.005Z,15.80
2023-04-14T03:07:48.019Z,13.50
2023-04-14T03:08:47.995Z,15.00
2023-04-14T03:09:47.979Z,13.30
2023-04-14T03:10:47.962Z,16.90
2023-04-14T03:11:47.956Z,13.90
2023-04-14T03:12:47.973Z,14.10
2023-04-14T03:13:47.934Z,15.10
2023-04-14T03:14:47.930Z,15.00
2023-04-14T03:15:47.978Z,19.10
2023-04-14T03:16:47.892Z,14.30
2023-04-14T03:17:47.969Z,15.10
2023-04-14T03:18:47.875Z,13.90
2023-04-14T03:19:47.863Z,14.90
2023-04-14T03:20:47.865Z,17.10
2023-04-14T03:21:47.841Z,17.00
2023-04-14T03:22:47.845Z,15.80
2023-04-14T03:23:47.822Z,19.80
2023-04-14T03:24:47.896Z,15.10
2023-04-14T03:25:47.804Z,15.00
2023-04-14T03:26:47.784Z,13.20
2023-04-14T03:27:47.802Z,16.90
2023-04-14T03:28:47.755Z,13.80
2023-04-14T03:29:47.756Z,14.10
2023-04-14T03:30:47.745Z,14.70
2023-04-14T03:31:47.779Z,13.40
2023-04-14T03:32:47.769Z,15.50
2023-04-14T03:33:47.717Z,19.00
2023-04-14T03:34:47.711Z,15.60
2023-04-14T03:35:47.716Z,14.80
2023-04-14T03:36:47.667Z,16.20
2023-04-14T03:37:47.679Z,19.30
2023-04-14T03:38:47.644Z,16.30
2023-04-14T03:39:47.659Z,15.30
2023-04-14T03:40:47.658Z,15.30
2023-04-14T03:41:47.642Z,18.50
2023-04-14T03:42:47.622Z,16.00
2023-04-14T03:43:47.606Z,14.30
2023-04-14T03:44:47.580Z,16.40
2023-04-14T03:45:47.573Z,17.10
2023-04-14T03:46:47.564Z,17.70
2023-04-14T03:47:47.632Z,18.70
2023-04-14T03:48:47.533Z,17.20
2023-04-14T03:49:47.534Z,14.70
2023-04-14T03:50:47.521Z,18.10
2023-04-14T03:51:47.508Z,15.60
2023-04-14T03:52:47.516Z,15.60
2023-04-14T03:53:47.489Z,16.60
2023-04-14T03:54:47.480Z,17.80
2023-04-14T03:55:47.463Z,16.60
2023-04-14T03:56:47.447Z,17.70
2023-04-14T03:57:47.461Z,16.00
2023-04-14T03:58:47.438Z,16.60
2023-04-14T03:59:47.419Z,17.20
2023-04-14T04:00:47.404Z,16.60
2023-04-14T04:01:47.467Z,20.30
2023-04-14T04:02:47.625Z,19.40
2023-04-14T04:03:47.587Z,17.50
2023-04-14T04:04:47.398Z,15.40
2023-04-14T04:05:47.350Z,18.70
2023-04-14T04:06:47.347Z,16.60
2023-04-14T04:07:47.336Z,17.60
2023-04-14T04:08:47.330Z,20.40
2023-04-14T04:09:47.309Z,16.60
2023-04-14T04:10:47.289Z,18.10
2023-04-14T04:11:47.278Z,16.90
2023-04-14T04:12:47.275Z,15.00
2023-04-14T04:13:47.278Z,14.90
2023-04-14T04:14:47.243Z,18.00
2023-04-14T04:15:47.253Z,17.50
2023-04-14T04:16:47.276Z,19.00
2023-04-14T04:17:47.310Z,17.40
2023-04-14T04:18:47.223Z,18.40
2023-04-14T04:19:47.195Z,19.10
2023-04-14T04:20:47.198Z,15.80
2023-04-14T04:21:47.185Z,16.80
2023-04-14T04:22:47.153Z,18.10
2023-04-14T04:23:47.173Z,17.90
2023-04-14T04:24:47.155Z,22.10
2023-04-14T04:25:47.128Z,16.80
2023-04-14T04:26:47.119Z,14.50
2023-04-14T04:27:47.106Z,17.00
2023-04-14T04:28:47.120Z,18.50
2023-04-14T04:29:47.082Z,12.10
2023-04-14T04:30:47.089Z,14.50
2023-04-14T04:31:47.104Z,15.60
2023-04-14T04:32:47.140Z,17.10
2023-04-14T04:33:47.091Z,18.40
2023-04-14T04:34:47.032Z,21.80
2023-04-14T04:35:47.045Z,18.40
2023-04-14T04:36:47.014Z,18.30
2023-04-14T04:37:47.052Z,16.10
2023-04-14T04:38:47.013Z,16.00
2023-04-14T04:39:46.985Z,18.60
2023-04-14T04:40:47.107Z,17.20
2023-04-14T04:41:46.989Z,14.40
2023-04-14T04:42:46.950Z,16.90
2023-04-14T04:43:46.981Z,16.10
2023-04-14T04:44:46.962Z,15.50
2023-04-14T04:45:46.995Z,19.90
2023-04-14T04:46:46.900Z,17.20
2023-04-14T04:47:46.945Z,16.40
2023-04-14T04:48:46.900Z,16.70
2023-04-14T04:49:46.894Z,13.50
2023-04-14T04:50:46.885Z,19.20
2023-04-14T04:51:46.838Z,15.40
2023-04-14T04:52:46.881Z,18.20
2023-04-14T04:53:46.843Z,22.90
2023-04-14T04:54:46.801Z,20.20
2023-04-14T04:55:46.804Z,17.00
2023-04-14T04:56:46.812Z,17.40
2023-04-14T04:57:46.788Z,19.20
2023-04-14T04:58:46.782Z,14.30
2023-04-14T04:59:46.764Z,18.60
2023-04-14T05:00:46.740Z,19.40
2023-04-14T05:01:46.834Z,16.70
2023-04-14T05:02:46.814Z,17.10
2023-04-14T05:03:46.739Z,17.00
2023-04-14T05:04:46.734Z,15.90
2023-04-14T05:05:46.690Z,17.80
2023-04-14T05:06:46.676Z,17.90
2023-04-14T05:07:46.662Z,16.90
2023-04-14T05:08:46.680Z,20.10
2023-04-14T05:09:46.653Z,17.90
2023-04-14T05:10:46.637Z,18.80
2023-04-14T05:11:46.642Z,16.40
2023-04-14T05:12:46.631Z,18.10
2023-04-14T05:13:46.629Z,16.60
2023-04-14T05:14:46.583Z,18.00
2023-04-14T05:15:46.598Z,17.30
2023-04-14T05:16:46.565Z,14.40
2023-04-14T05:17:46.587Z,17.50
2023-04-14T05:18:46.584Z,17.70
2023-04-14T05:19:46.569Z,16.10
2023-04-14T05:20:46.529Z,15.30
2023-04-14T05:21:46.520Z,16.20
2023-04-14T05:22:46.503Z,14.40
2023-04-14T05:23:46.529Z,15.30
2023-04-14T05:24:46.478Z,15.60
2023-04-14T05:25:47.632Z,19.20
2023-04-14T05:27:01.802Z,18.30
2023-04-14T05:27:46.454Z,18.10
2023-04-14T05:28:46.476Z,16.10
2023-04-14T05:29:46.423Z,20.40
2023-04-14T05:30:46.472Z,17.40
2023-04-14T05:31:46.496Z,17.80
2023-04-14T05:32:46.420Z,18.70
2023-04-14T05:33:46.407Z,18.90
2023-04-14T05:34:46.371Z,18.00
2023-04-14T05:35:46.359Z,17.40
2023-04-14T05:36:46.408Z,15.80
2023-04-14T05:37:46.351Z,17.70
2023-04-14T05:38:46.350Z,18.80
2023-04-14T05:39:46.312Z,16.40
2023-04-14T05:40:46.309Z,20.20
2023-04-14T05:41:46.297Z,20.20
2023-04-14T05:42:46.288Z,17.20
2023-04-14T05:43:46.282Z,19.60
2023-04-14T05:44:46.258Z,24.40
2023-04-14T05:45:46.244Z,15.70
2023-04-14T05:46:46.284Z,19.20
2023-04-14T05:47:47.999Z,16.40
2023-04-14T05:48:46.228Z,18.40
2023-04-14T05:49:46.199Z,17.60
2023-04-14T05:50:46.200Z,16.40
2023-04-14T05:51:46.180Z,21.00
2023-04-14T05:52:46.168Z,17.00
2023-04-14T05:53:46.186Z,21.10
2023-04-14T05:54:46.275Z,19.00
2023-04-14T05:55:46.128Z,16.30
2023-04-14T05:56:46.122Z,18.70
2023-04-14T05:57:46.110Z,16.90
2023-04-14T05:58:46.141Z,16.50
2023-04-14T05:59:46.096Z,19.10
2023-04-14T06:00:46.093Z,14.10
2023-04-14T06:01:46.176Z,15.30
2023-04-14T06:02:46.264Z,14.80
2023-04-14T06:03:46.315Z,16.30
2023-04-14T06:04:46.145Z,20.00
2023-04-14T06:05:46.020Z,16.20
2023-04-14T06:06:46.022Z,14.50
2023-04-14T06:07:46.000Z,17.70
2023-04-14T06:08:46.012Z,17.00
2023-04-14T06:09:45.973Z,15.80
2023-04-14T06:10:45.964Z,19.80
2023-04-14T06:11:45.953Z,17.40
2023-04-14T06:12:45.942Z,14.10
2023-04-14T06:13:45.953Z,18.80
2023-04-14T06:14:45.936Z,18.30
2023-04-14T06:15:45.909Z,15.70
2023-04-14T06:16:45.969Z,14.60
2023-04-14T06:17:45.955Z,18.10
2023-04-14T06:18:45.902Z,16.90
2023-04-14T06:19:45.873Z,16.10
2023-04-14T06:20:45.857Z,15.10
2023-04-14T06:21:45.843Z,13.90
2023-04-14T06:22:45.837Z,15.50
2023-04-14T06:23:45.842Z,18.10
2023-04-14T06:24:45.816Z,14.90
2023-04-14T06:25:45.799Z,14.50
2023-04-14T06:26:45.822Z,12.30
2023-04-14T06:27:45.777Z,18.40
2023-04-14T06:28:45.785Z,14.50
2023-04-14T06:29:45.753Z,15.90
2023-04-14T06:30:45.749Z,15.00
2023-04-14T06:31:45.785Z,16.80
2023-04-14T06:32:45.765Z,13.00
2023-04-14T06:33:45.734Z,15.50
2023-04-14T06:34:45.735Z,17.10
2023-04-14T06:35:45.687Z,14.10
2023-04-14T06:36:45.695Z,14.10
2023-04-14T06:37:45.670Z,15.90
2023-04-14T06:38:45.673Z,19.40
2023-04-14T06:39:45.636Z,11.30
2023-04-14T06:40:45.646Z,14.60
2023-04-14T06:41:45.672Z,17.80
2023-04-14T06:42:45.612Z,15.90
2023-04-14T06:43:45.654Z,14.00
2023-04-14T06:44:45.685Z,16.60
2023-04-14T06:45:45.607Z,15.60
2023-04-14T06:46:45.574Z,13.30
2023-04-14T06:47:45.575Z,14.70
2023-04-14T06:48:45.580Z,12.70
2023-04-14T06:49:45.586Z,13.30
2023-04-14T06:50:45.535Z,11.50
2023-04-14T06:51:45.507Z,13.20
2023-04-14T06:52:45.523Z,14.10
2023-04-14T06:53:45.512Z,13.60
2023-04-14T06:54:45.505Z,14.10
2023-04-14T06:55:45.466Z,15.40
2023-04-14T06:56:45.619Z,13.40
2023-04-14T06:57:45.452Z,14.40
2023-04-14T06:58:45.585Z,12.90
2023-04-14T06:59:45.432Z,14.20
2023-04-14T07:00:45.419Z,12.10
2023-04-14T07:01:45.512Z,14.50
2023-04-14T07:02:45.451Z,13.20
2023-04-14T07:03:45.409Z,12.50
2023-04-14T07:04:45.408Z,12.70
2023-04-14T07:05:45.380Z,13.70
2023-04-14T07:06:45.348Z,14.40
2023-04-14T07:07:45.336Z,13.70
2023-04-14T07:08:45.348Z,15.20
2023-04-14T07:09:45.437Z,14.40
2023-04-14T07:10:45.305Z,12.80
2023-04-14T07:11:45.283Z,12.40
2023-04-14T07:12:45.289Z,13.90
2023-04-14T07:13:45.284Z,14.20
2023-04-14T07:14:45.256Z,13.50
2023-04-14T07:15:45.315Z,12.30
2023-04-14T07:16:45.229Z,13.00
2023-04-14T07:17:45.246Z,12.60
2023-04-14T07:18:45.242Z,13.60
2023-04-14T07:19:45.193Z,14.10
2023-04-14T07:20:45.199Z,12.20
2023-04-14T07:21:45.184Z,14.30
2023-04-14T07:22:45.175Z,19.00
2023-04-14T07:23:45.181Z,13.90
2023-04-14T07:24:45.132Z,13.40
2023-04-14T07:25:45.128Z,17.00
2023-04-14T07:26:45.111Z,12.80
2023-04-14T07:27:52.981Z,13.40
2023-04-14T07:28:45.132Z,15.70
2023-04-14T07:29:45.072Z,13.40
2023-04-14T07:30:45.068Z,14.20
2023-04-14T07:31:45.104Z,13.80
2023-04-14T07:32:45.088Z,10.20
2023-04-14T07:33:45.056Z,16.80
2023-04-14T07:34:45.024Z,16.90
2023-04-14T07:35:58.228Z,14.00
2023-04-14T07:36:45.004Z,12.20
2023-04-14T07:37:44.994Z,13.40
2023-04-14T07:38:45.001Z,12.80
2023-04-14T07:39:44.970Z,14.30
2023-04-14T07:40:44.958Z,13.90
2023-04-14T07:41:44.953Z,13.50
2023-04-14T07:42:44.943Z,13.10
2023-04-14T07:43:44.966Z,14.90
2023-04-14T07:44:44.914Z,12.70
2023-04-14T07:45:44.898Z,13.80
2023-04-14T07:46:45.166Z,14.10
2023-04-14T07:47:44.913Z,14.80
2023-04-14T07:48:44.905Z,11.20
2023-04-14T07:49:44.857Z,13.90
2023-04-14T07:50:44.850Z,11.00
2023-04-14T07:51:44.828Z,13.40
2023-04-14T07:52:44.823Z,11.50
2023-04-14T07:53:44.887Z,13.80
2023-04-14T07:54:44.809Z,14.60
2023-04-14T07:55:44.791Z,10.40
2023-04-14T07:56:44.786Z,10.50
2023-04-14T07:57:44.773Z,12.60
2023-04-14T07:58:44.789Z,13.80
2023-04-14T07:59:44.756Z,11.90
2023-04-14T08:00:44.734Z,11.20
2023-04-14T08:01:44.810Z,12.20
2023-04-14T08:02:44.891Z,14.40
2023-04-14T08:03:45.679Z,15.10
2023-04-14T08:04:44.697Z,10.10
2023-04-14T08:05:44.773Z,12.20
2023-04-14T08:06:44.750Z,11.80
2023-04-14T08:07:44.681Z,13.10
2023-04-14T08:08:44.672Z,15.30
2023-04-14T08:09:44.642Z,11.00
2023-04-14T08:10:44.703Z,12.20
2023-04-14T08:11:44.686Z,10.30
2023-04-14T08:12:44.670Z,11.00
2023-04-14T08:13:44.667Z,13.80
2023-04-14T08:14:44.593Z,14.70
2023-04-14T08:15:44.606Z,14.30
2023-04-14T08:16:44.576Z,11.00
2023-04-14T08:17:44.558Z,10.40
2023-04-14T08:18:44.547Z,12.30
2023-04-14T08:19:44.530Z,9.60
2023-04-14T08:20:44.514Z,9.20
2023-04-14T08:21:44.504Z,11.40
2023-04-14T08:22:44.489Z,10.40
2023-04-14T08:23:44.501Z,11.80
2023-04-14T08:24:44.464Z,11.30
2023-04-14T08:25:44.505Z,10.80
2023-04-14T08:26:44.445Z,11.40
2023-04-14T08:27:44.425Z,14.40
2023-04-14T08:28:44.447Z,10.30
2023-04-14T08:29:44.413Z,12.00
2023-04-14T08:30:44.409Z,10.30
2023-04-14T08:31:44.454Z,11.70
2023-04-14T08:32:44.416Z,10.50
2023-04-14T08:33:44.378Z,9.60
2023-04-14T08:35:38.316Z,11.00
2023-04-14T08:35:46.477Z,10.30
2023-04-14T08:36:44.337Z,10.00
2023-04-14T08:37:44.321Z,11.40
2023-04-14T08:38:44.332Z,12.40
2023-04-14T08:39:44.301Z,12.40
2023-04-14T08:40:44.302Z,11.00
2023-04-14T08:41:44.269Z,9.80
2023-04-14T08:42:44.261Z,12.40
2023-04-14T08:43:44.276Z,12.20
2023-04-14T08:44:44.250Z,8.10
2023-04-14T08:45:44.264Z,11.90
2023-04-14T08:46:44.221Z,8.50
2023-04-14T08:47:44.307Z,13.50
2023-04-14T08:48:44.210Z,11.30
2023-04-14T08:49:44.175Z,12.70
2023-04-14T08:50:44.186Z,10.90
2023-04-14T08:51:44.154Z,12.20
2023-04-14T08:52:44.149Z,9.80
2023-04-14T08:53:44.155Z,10.90
2023-04-14T08:54:44.128Z,11.10
2023-04-14T08:55:44.131Z,9.80
2023-04-14T08:56:44.123Z,8.80
2023-04-14T08:57:44.094Z,9.50
2023-04-14T08:58:44.109Z,14.70
2023-04-14T08:59:44.085Z,12.10
2023-04-14T09:00:44.105Z,8.90
2023-04-14T09:01:44.154Z,9.60
2023-04-14T09:02:44.331Z,8.90
2023-04-14T09:03:44.355Z,9.70
2023-04-14T09:04:44.056Z,11.90
2023-04-14T09:05:44.007Z,9.80
2023-04-14T09:06:44.005Z,11.60
2023-04-14T09:07:43.987Z,9.50
2023-04-14T09:08:44.003Z,10.80
2023-04-14T09:09:43.990Z,12.10
2023-04-14T09:10:43.959Z,10.90
2023-04-14T09:11:43.938Z,11.40
2023-04-14T09:12:43.937Z,11.40
2023-04-14T09:13:44.005Z,10.60
2023-04-14T09:14:43.913Z,13.50
2023-04-14T09:15:43.899Z,10.00
2023-04-14T09:16:43.958Z,10.50
2023-04-14T09:17:43.924Z,9.30
2023-04-14T09:18:43.883Z,10.40
2023-04-14T09:20:35.654Z,10.80
2023-04-14T09:20:44.429Z,11.20
2023-04-14T09:21:53.287Z,12.20
2023-04-14T09:22:43.827Z,9.90
2023-04-14T09:23:43.822Z,11.50
2023-04-14T09:24:43.798Z,9.50
2023-04-14T09:25:43.785Z,11.50
2023-04-14T09:26:43.773Z,9.30
2023-04-14T09:27:43.764Z,8.80
2023-04-14T09:28:43.769Z,8.10
2023-04-14T09:29:43.742Z,10.90
2023-04-14T09:30:45.216Z,11.80
2023-04-14T09:31:43.820Z,12.80
2023-04-14T09:32:43.758Z,9.90
2023-04-14T09:33:43.732Z,11.30
2023-04-14T09:34:43.676Z,13.00
2023-04-14T09:35:43.672Z,13.10
2023-04-14T09:36:43.653Z,9.90
2023-04-14T09:37:43.678Z,11.30
2023-04-14T09:38:43.650Z,15.40
2023-04-14T09:39:43.624Z,12.30
2023-04-14T09:40:43.606Z,9.00
2023-04-14T09:41:43.605Z,9.10
2023-04-14T09:42:43.598Z,9.50
2023-04-14T09:43:43.599Z,7.70
2023-04-14T09:44:43.564Z,11.00
2023-04-14T09:45:43.561Z,11.10
2023-04-14T09:46:43.650Z,10.60
2023-04-14T09:47:43.585Z,9.40
2023-04-14T09:48:43.537Z,10.30
2023-04-14T09:49:43.514Z,9.90
2023-04-14T09:50:43.498Z,9.80
2023-04-14T09:51:43.491Z,10.50
2023-04-14T09:52:43.477Z,14.20
2023-04-14T09:53:44.669Z,9.30
2023-04-14T09:54:43.484Z,10.70
2023-04-14T09:55:43.446Z,9.80
2023-04-14T09:56:43.428Z,10.60
2023-04-14T09:57:43.432Z,11.20
2023-04-14T09:58:43.477Z,10.60
2023-04-14T09:59:43.406Z,9.40
2023-04-14T10:00:43.397Z,9.90
2023-04-14T10:01:43.408Z,12.80
2023-04-14T10:02:43.541Z,8.90
2023-04-14T10:03:43.508Z,9.70
2023-04-14T10:04:43.426Z,10.00
2023-04-14T10:05:44.188Z,9.00
2023-04-14T10:06:43.357Z,9.50
2023-04-14T10:07:43.329Z,10.60
2023-04-14T10:08:43.345Z,10.60
2023-04-14T10:09:43.294Z,9.40
2023-04-14T10:10:43.303Z,11.60
2023-04-14T10:11:43.279Z,11.20
2023-04-14T10:12:43.301Z,8.70
2023-04-14T10:13:43.316Z,11.40
2023-04-14T10:14:43.327Z,12.20
2023-04-14T10:15:43.318Z,15.70
2023-04-14T10:16:43.268Z,10.10
2023-04-14T10:17:43.279Z,11.00
2023-04-14T10:18:43.236Z,10.60
2023-04-14T10:19:44.292Z,10.50
2023-04-14T10:20:43.192Z,8.80
2023-04-14T10:21:43.211Z,9.20
2023-04-14T10:22:43.214Z,9.50
2023-04-14T10:23:43.254Z,10.60
2023-04-14T10:24:43.142Z,11.00
2023-04-14T10:25:43.120Z,12.00
2023-04-14T10:26:43.143Z,9.50
2023-04-14T10:27:43.118Z,12.40
2023-04-14T10:28:43.173Z,8.80
2023-04-14T10:29:43.104Z,10.20
2023-04-14T10:30:43.095Z,9.40
2023-04-14T10:31:43.152Z,11.70
2023-04-14T10:32:43.206Z,10.10
2023-04-14T10:33:43.084Z,10.40
2023-04-14T10:34:43.053Z,9.40
2023-04-14T10:35:43.033Z,10.90
2023-04-14T10:36:43.081Z,8.60
2023-04-14T10:37:43.012Z,8.40
2023-04-14T10:38:43.020Z,10.00
2023-04-14T10:39:43.033Z,9.00
2023-04-14T10:40:42.996Z,11.80
2023-04-14T10:41:42.981Z,9.00
2023-04-14T10:42:42.952Z,8.50
2023-04-14T10:43:42.994Z,7.30
2023-04-14T10:44:42.943Z,8.60
2023-04-14T10:45:42.932Z,12.00
2023-04-14T10:46:42.951Z,9.50
2023-04-14T10:47:42.976Z,10.80
2023-04-14T10:48:42.943Z,10.60
2023-04-14T10:49:42.946Z,9.10
2023-04-14T10:50:43.089Z,9.00
2023-04-14T10:51:42.876Z,10.80
2023-04-14T10:52:42.849Z,8.50
2023-04-14T10:53:42.934Z,12.30
2023-04-14T10:54:42.831Z,8.80
2023-04-14T10:55:51.748Z,8.80
2023-04-14T10:56:42.904Z,7.80
2023-04-14T10:57:42.806Z,9.90
2023-04-14T10:58:42.866Z,10.90
2023-04-14T10:59:42.852Z,8.90
2023-04-14T11:00:42.801Z,12.20
2023-04-14T11:01:42.727Z,11.40
2023-04-14T11:02:42.828Z,8.30
2023-04-14T11:03:42.846Z,10.90
2023-04-14T11:04:42.687Z,12.90
2023-04-14T11:05:42.672Z,10.80
2023-04-14T11:06:42.658Z,8.40
2023-04-14T11:07:42.648Z,11.20
2023-04-14T11:08:42.658Z,9.00
2023-04-14T11:09:42.628Z,8.10
2023-04-14T11:10:42.636Z,10.40
2023-04-14T11:11:42.607Z,12.70
2023-04-14T11:12:42.597Z,10.60
2023-04-14T11:13:42.608Z,9.50
2023-04-14T11:14:42.573Z,9.80
2023-04-14T11:15:42.566Z,11.70
2023-04-14T11:16:50.498Z,12.20
2023-04-14T11:17:42.654Z,9.90
2023-04-14T11:18:45.235Z,11.20
2023-04-14T11:19:42.520Z,11.20
2023-04-14T11:20:42.537Z,10.30
2023-04-14T11:21:42.497Z,10.00
2023-04-14T11:22:42.489Z,11.80
2023-04-14T11:23:42.501Z,10.50
2023-04-14T11:24:42.472Z,11.60
2023-04-14T11:25:42.463Z,11.70
2023-04-14T11:26:42.438Z,10.60
2023-04-14T11:27:42.441Z,12.80
2023-04-14T11:28:42.453Z,9.20
2023-04-14T11:29:42.413Z,8.40
2023-04-14T11:30:42.424Z,9.30
2023-04-14T11:31:42.473Z,7.50
2023-04-14T11:32:42.394Z,7.50
2023-04-14T11:33:42.669Z,9.70
2023-04-14T11:34:42.357Z,9.20
2023-04-14T11:35:42.355Z,10.90
2023-04-14T11:36:42.334Z,7.50
2023-04-14T11:37:42.326Z,10.70
2023-04-14T11:38:42.322Z,12.00
2023-04-14T11:39:42.296Z,11.10
2023-04-14T11:40:42.291Z,10.10
2023-04-14T11:41:42.280Z,11.10
2023-04-14T11:42:42.262Z,10.50
2023-04-14T11:43:42.271Z,11.90
2023-04-14T11:44:42.232Z,9.20
2023-04-14T11:45:42.242Z,11.10
2023-04-14T11:46:42.290Z,9.80
2023-04-14T11:47:42.236Z,10.90
2023-04-14T11:48:42.226Z,9.10
2023-04-14T11:49:42.216Z,12.20
2023-04-14T11:50:42.170Z,7.70
2023-04-14T11:51:42.190Z,6.80
2023-04-14T11:52:42.159Z,9.30
2023-04-14T11:53:42.173Z,9.50
2023-04-14T11:54:42.192Z,10.30
2023-04-14T11:55:42.118Z,8.60
2023-04-14T11:56:42.118Z,7.80
2023-04-14T11:57:42.101Z,9.60
2023-04-14T11:58:42.155Z,8.70
2023-04-14T11:59:42.093Z,8.90
2023-04-14T12:00:42.086Z,9.70
2023-04-14T12:01:42.096Z,13.90
2023-04-14T12:02:42.118Z,8.50
2023-04-14T12:03:42.232Z,8.50
2023-04-14T12:04:42.212Z,10.00
2023-04-14T12:05:42.129Z,10.10
2023-04-14T12:06:42.010Z,9.20
2023-04-14T12:07:41.989Z,11.10
2023-04-14T12:08:41.999Z,11.00
2023-04-14T12:09:41.966Z,10.30
2023-04-14T12:10:41.955Z,11.10
2023-04-14T12:11:41.945Z,9.10
2023-04-14T12:12:41.924Z,6.80
2023-04-14T12:13:42.005Z,10.90
2023-04-14T12:14:41.909Z,10.40
2023-04-14T12:15:41.943Z,8.50
2023-04-14T12:16:41.919Z,10.20
2023-04-14T12:17:41.966Z,11.70
2023-04-14T12:18:41.892Z,11.10
2023-04-14T12:19:41.875Z,10.50
2023-04-14T12:20:41.904Z,9.70
2023-04-14T12:21:41.821Z,9.10
2023-04-14T12:22:41.819Z,8.90
2023-04-14T12:23:41.828Z,9.60
2023-04-14T12:24:41.797Z,11.40
2023-04-14T12:25:41.784Z,10.30
2023-04-14T12:26:41.763Z,9.20
2023-04-14T12:27:41.791Z,11.10
2023-04-14T12:28:42.191Z,11.50
2023-04-14T12:29:41.792Z,10.20
2023-04-14T12:30:41.763Z,10.50
2023-04-14T12:31:41.747Z,9.20
2023-04-14T12:32:41.787Z,9.10
2023-04-14T12:33:41.735Z,10.30
2023-04-14T12:34:41.694Z,9.70
2023-04-14T12:35:41.687Z,10.70
2023-04-14T12:36:50.210Z,11.20
2023-04-14T12:37:41.665Z,10.50
2023-04-14T12:38:41.739Z,8.90
2023-04-14T12:39:41.640Z,8.60
2023-04-14T12:40:41.624Z,7.30
2023-04-14T12:41:41.668Z,9.80
2023-04-14T12:42:41.614Z,8.70
2023-04-14T12:43:41.607Z,9.30
2023-04-14T12:44:41.569Z,8.30
2023-04-14T12:45:41.567Z,8.00
2023-04-14T12:46:41.606Z,9.40
2023-04-14T12:47:41.592Z,8.20
2023-04-14T12:48:41.542Z,8.90
2023-04-14T12:49:41.535Z,8.80
2023-04-14T12:50:41.508Z,8.70
2023-04-14T12:51:41.495Z,8.90
2023-04-14T12:52:41.472Z,10.00
2023-04-14T12:53:41.493Z,8.90
2023-04-14T12:54:41.460Z,7.20
2023-04-14T12:55:41.443Z,9.10
2023-04-14T12:56:41.429Z,8.20